Guardiao — CSYF9 — position and weather

sailwx.info

Track history (hours):
 
Tides and Currents Weather Stations Pressure Air Temp Water Temp Dewpoint Dewpoint Depression Visibility Wind Speed Wind Dir Waves Ship Positions

Guardiao

Last reported at 2018-May-08 16:00 UTC. Time now 2018-May-23 15:11 UTC.
Position N 38°28' W 008°57'.
Warning: this ship's position is 14 days out of date.

; draft 4.5 m.

Type: Tug. MMSI: 263601860.

Date/timePositionNaut miles runAvg speedWind from/ knotsBaromVisibWave heightAir tempDewpointWater temp
2018-May-08 16:00N 38°28' W 008°57'1 0.1
2018-May-08 11:29N 38°29' W 008°56'4 6.3
2018-May-08 10:55N 38°25' W 008°59'8 6.3
2018-May-08 09:43N 38°28' W 008°50'2 0.0
2018-May-06 07:42N 38°30' W 008°51'2 8.6
2018-May-06 07:30N 38°31' W 008°53'4 8.6
2018-May-06 06:59N 38°28' W 008°57'0 0.4
2018-May-06 06:30N 38°28' W 008°57'3 6.5
2018-May-06 06:00N 38°30' W 008°54'4 4.2
2018-May-06 05:09N 38°28' W 008°50'0 0.1
2018-May-06 05:00N 38°28' W 008°50'2 0.2
2018-May-05 18:59N 38°30' W 008°50'3 5.4
2018-May-05 18:30N 38°28' W 008°48'0 0.3
2018-May-05 17:54N 38°28' W 008°48'  
Track history (hours):
 
Tides and Currents Weather Stations Pressure Air Temp Water Temp Dewpoint Dewpoint Depression Visibility Wind Speed Wind Dir Waves Ship Positions

Guardiao

Last reported at 2018-May-08 16:00 UTC. Time now 2018-May-23 15:11 UTC.
Position N 38°28' W 008°57'.
Warning: this ship's position is 14 days out of date.

; draft 4.5 m.

Type: Tug. MMSI: 263601860.

Date/timePositionNaut miles runAvg speedWind from/ knotsBaromVisibWave heightAir tempDewpointWater temp
2018-May-08 16:00N 38°28' W 008°57'1 0.1
2018-May-08 11:29N 38°29' W 008°56'4 6.3
2018-May-08 10:55N 38°25' W 008°59'8 6.3
2018-May-08 09:43N 38°28' W 008°50'2 0.0
2018-May-06 07:42N 38°30' W 008°51'2 8.6
2018-May-06 07:30N 38°31' W 008°53'4 8.6
2018-May-06 06:59N 38°28' W 008°57'0 0.4
2018-May-06 06:30N 38°28' W 008°57'3 6.5
2018-May-06 06:00N 38°30' W 008°54'4 4.2
2018-May-06 05:09N 38°28' W 008°50'0 0.1
2018-May-06 05:00N 38°28' W 008°50'2 0.2
2018-May-05 18:59N 38°30' W 008°50'3 5.4
2018-May-05 18:30N 38°28' W 008°48'0 0.3
2018-May-05 17:54N 38°28' W 008°48'  

Dump ship's entire track history